createdAt,value
2018-04-19T00:01:11.095Z,30.63
2018-04-19T00:03:39.917Z,26.97
2018-04-19T00:06:08.486Z,25.30
2018-04-19T00:08:39.697Z,29.37
2018-04-19T00:11:08.146Z,33.10
2018-04-19T00:13:38.501Z,34.70
2018-04-19T00:16:07.920Z,28.67
2018-04-19T00:18:36.655Z,29.63
2018-04-19T00:21:05.323Z,32.27
2018-04-19T00:23:35.682Z,30.57
2018-04-19T00:26:06.640Z,30.20
2018-04-19T00:28:39.957Z,29.40
2018-04-19T00:31:08.509Z,27.33
2018-04-19T00:33:37.297Z,30.37
2018-04-19T00:36:05.985Z,36.10
2018-04-19T00:38:35.699Z,31.40
2018-04-19T00:41:04.390Z,30.77
2018-04-19T00:43:33.073Z,30.97
2018-04-19T00:46:04.281Z,30.93
2018-04-19T00:48:33.438Z,31.40
2018-04-19T00:51:02.116Z,33.93
2018-04-19T00:53:31.080Z,30.60
2018-04-19T00:56:05.704Z,29.53
2018-04-19T00:58:34.398Z,28.10
2018-04-19T01:01:03.018Z,27.80
2018-04-19T01:03:35.635Z,34.73
2018-04-19T01:06:04.385Z,28.37
2018-04-19T01:08:33.041Z,31.80
2018-04-19T01:11:01.804Z,29.50
2018-04-19T01:13:32.201Z,32.23
2018-04-19T01:16:01.572Z,30.80
2018-04-19T01:18:31.076Z,31.17
2018-04-19T01:20:59.812Z,30.30
2018-04-19T01:23:28.593Z,29.43
2018-04-19T01:25:57.582Z,29.83
2018-04-19T01:28:28.840Z,31.20
2018-04-19T01:30:57.725Z,29.90
2018-04-19T01:33:26.667Z,28.67
2018-04-19T01:36:09.729Z,32.83
2018-04-19T01:38:38.535Z,33.03
2018-04-19T01:41:07.420Z,38.37
2018-04-19T01:43:36.331Z,30.30
2018-04-19T01:46:05.109Z,30.40
2018-04-19T01:48:34.819Z,33.80
2018-04-19T01:51:06.280Z,36.43
2018-04-19T01:53:34.983Z,37.27
2018-04-19T01:56:06.519Z,35.97
2018-04-19T01:58:35.176Z,38.93
2018-04-19T02:01:06.650Z,38.37
2018-04-19T02:03:35.452Z,36.70
2018-04-19T02:06:06.993Z,34.73
2018-04-19T02:08:35.411Z,33.97
2018-04-19T02:11:08.373Z,39.70
2018-04-19T02:13:36.819Z,33.27
2018-04-19T02:16:05.047Z,35.73
2018-04-19T02:18:33.285Z,40.13
2018-04-19T02:21:01.499Z,30.87
2018-04-19T02:23:29.829Z,30.60
2018-04-19T02:26:00.678Z,34.03
2018-04-19T02:28:29.193Z,34.20
2018-04-19T02:30:59.456Z,33.97
2018-04-19T02:33:34.039Z,33.10
2018-04-19T02:36:02.245Z,34.67
2018-04-19T02:38:33.336Z,33.63
2018-04-19T02:41:01.609Z,30.90
2018-04-19T02:43:32.555Z,38.67
2018-04-19T02:46:00.843Z,35.80
2018-04-19T02:48:29.326Z,38.80
2018-04-19T02:51:00.043Z,37.33
2018-04-19T02:53:28.691Z,37.63
2018-04-19T02:55:57.288Z,37.30
2018-04-19T02:58:25.930Z,37.10
2018-04-19T03:00:54.401Z,41.03
2018-04-19T03:03:23.798Z,36.80
2018-04-19T03:05:53.890Z,38.73
2018-04-19T03:08:23.631Z,34.50
2018-04-19T03:10:52.042Z,36.37
2018-04-19T03:13:21.012Z,33.07
2018-04-19T03:15:49.212Z,35.00
2018-04-19T03:18:17.408Z,32.10
2018-04-19T03:20:45.616Z,31.60
2018-04-19T03:23:15.005Z,30.37
2018-04-19T03:25:45.085Z,34.67
2018-04-19T03:28:13.309Z,36.30
2018-04-19T03:30:42.056Z,37.70
2018-04-19T03:33:10.257Z,32.33
2018-04-19T03:35:38.479Z,33.77
2018-04-19T03:38:06.783Z,31.67
2018-04-19T03:40:34.997Z,34.07
2018-04-19T03:43:03.921Z,36.80
2018-04-19T03:45:32.210Z,30.70
2018-04-19T03:48:00.441Z,34.33
2018-04-19T03:50:28.745Z,33.60
2018-04-19T03:53:02.127Z,34.07
2018-04-19T03:55:31.079Z,32.00
2018-04-19T03:57:59.250Z,32.30
2018-04-19T04:00:27.521Z,39.13
2018-04-19T20:29:03.047Z,8.50
2018-04-19T20:31:31.527Z,4.50
2018-04-19T20:33:59.972Z,11.13
2018-04-19T20:36:28.438Z,10.50
2018-04-19T20:38:56.989Z,7.70
2018-04-19T20:41:25.395Z,5.30
2018-04-19T20:43:53.922Z,6.83
2018-04-19T20:46:22.402Z,8.03
2018-04-19T20:48:50.890Z,8.33
2018-04-19T20:51:19.231Z,7.37
2018-04-19T20:53:49.362Z,6.50
2018-04-19T20:56:17.898Z,4.07
2018-04-19T20:58:46.403Z,8.23
2018-04-19T21:01:14.918Z,7.57
2018-04-19T21:03:43.658Z,6.53
2018-04-19T21:06:12.251Z,5.33
2018-04-19T21:08:40.497Z,6.40
2018-04-19T21:11:08.970Z,9.00
2018-04-19T21:13:37.400Z,5.20
2018-04-19T21:16:05.978Z,8.70
2018-04-19T21:18:34.412Z,6.87
2018-04-19T21:21:03.564Z,6.43
2018-04-19T21:23:32.041Z,7.87
2018-04-19T21:26:00.445Z,11.13
2018-04-19T21:28:28.946Z,6.27
2018-04-19T21:30:57.464Z,7.23
2018-04-19T21:33:25.882Z,7.90
2018-04-19T21:35:54.255Z,6.20
2018-04-19T21:38:22.721Z,7.50
2018-04-19T21:40:51.907Z,7.50
2018-04-19T21:43:20.358Z,11.40
2018-04-19T21:45:48.790Z,8.40
2018-04-19T21:48:17.277Z,11.00
2018-04-19T21:50:45.775Z,9.87
2018-04-19T21:53:14.278Z,8.50
2018-04-19T21:55:42.757Z,9.27
2018-04-19T21:58:11.238Z,15.43
2018-04-19T22:00:39.718Z,8.50
2018-04-19T22:03:09.175Z,6.70
2018-04-19T22:05:37.686Z,6.93
2018-04-19T22:08:06.200Z,7.90
2018-04-19T22:10:34.642Z,8.70
2018-04-19T22:13:03.177Z,10.43
2018-04-19T22:15:31.696Z,9.17
2018-04-19T22:18:00.173Z,10.60
2018-04-19T22:20:28.677Z,4.67
2018-04-19T22:22:56.951Z,8.33
2018-04-19T22:25:25.430Z,9.47
2018-04-19T22:27:53.855Z,7.60
2018-04-19T22:30:22.346Z,11.40
2018-04-19T22:32:51.988Z,7.87
2018-04-19T22:35:20.451Z,8.33
2018-04-19T22:37:48.963Z,8.27
2018-04-19T22:40:17.471Z,10.37
2018-04-19T22:42:46.010Z,12.93
2018-04-19T22:45:14.483Z,15.70
2018-04-19T22:47:42.958Z,7.40
2018-04-19T22:50:11.448Z,8.50
2018-04-19T22:52:39.926Z,7.10
2018-04-19T22:55:08.480Z,6.40
2018-04-19T22:57:37.000Z,7.40
2018-04-19T23:00:05.643Z,8.40
2018-04-19T23:02:34.070Z,10.97
2018-04-19T23:05:02.426Z,7.93
2018-04-19T23:07:30.872Z,7.80
2018-04-19T23:09:59.365Z,5.97
2018-04-19T23:12:27.529Z,7.10
2018-04-19T23:14:56.038Z,9.20
2018-04-19T23:17:24.564Z,8.07
2018-04-19T23:19:53.844Z,9.13
2018-04-19T23:22:33.928Z,6.80
2018-04-19T23:25:02.505Z,7.23
2018-04-19T23:27:31.052Z,10.43
2018-04-19T23:29:59.441Z,6.03
2018-04-19T23:32:27.949Z,7.70
2018-04-19T23:34:56.388Z,8.37
2018-04-19T23:37:24.822Z,13.77
2018-04-19T23:39:54.624Z,9.93
2018-04-19T23:42:23.033Z,11.27
2018-04-19T23:44:51.535Z,9.97
2018-04-19T23:47:20.053Z,7.67
2018-04-19T23:49:48.573Z,6.90
2018-04-19T23:52:17.016Z,8.93
2018-04-19T23:54:45.569Z,8.77
2018-04-19T23:57:14.156Z,9.90
2018-04-19T23:59:43.229Z,9.80
